createdAt,value
2018-12-27T00:01:48.835Z,82.90
2018-12-27T00:04:31.926Z,83.79
2018-12-27T00:07:22.398Z,82.85
2018-12-27T00:10:04.240Z,83.20
2018-12-27T00:16:17.366Z,83.70
2018-12-27T00:19:00.386Z,83.44
2018-12-27T00:21:43.112Z,82.56
2018-12-27T00:27:53.861Z,82.67
2018-12-27T00:30:37.082Z,82.29
2018-12-27T00:33:27.738Z,82.45
2018-12-27T00:36:09.624Z,82.94
2018-12-27T00:39:00.299Z,82.00
2018-12-27T00:41:44.951Z,82.12
2018-12-27T00:47:37.191Z,82.74
2018-12-27T00:50:18.923Z,81.92
2018-12-27T00:53:09.570Z,82.14
2018-12-27T00:55:52.557Z,82.36
2018-12-27T00:58:36.841Z,82.44
2018-12-27T01:01:18.583Z,82.10
2018-12-27T01:04:09.349Z,82.38
2018-12-27T01:06:52.941Z,82.37
2018-12-27T01:09:43.596Z,82.04
2018-12-27T01:12:27.269Z,81.12
2018-12-27T01:18:44.498Z,81.55
2018-12-27T01:21:28.068Z,80.13
2018-12-27T01:24:10.976Z,81.43
2018-12-27T01:33:24.436Z,82.26
2018-12-27T01:36:13.383Z,82.38
2018-12-27T01:42:31.338Z,83.19
2018-12-27T01:45:14.985Z,82.63
2018-12-27T01:47:58.443Z,81.86
2018-12-27T01:50:49.142Z,82.61
2018-12-27T01:53:32.540Z,82.91
2018-12-27T01:59:43.177Z,82.28
2018-12-27T02:02:26.625Z,82.59
2018-12-27T02:05:10.063Z,82.92
2018-12-27T02:08:00.700Z,82.63
2018-12-27T02:10:42.326Z,82.57
2018-12-27T02:13:32.953Z,82.77
2018-12-27T02:16:16.578Z,82.42
2018-12-27T02:19:07.309Z,82.13
2018-12-27T02:21:49.071Z,81.98
2018-12-27T02:24:39.789Z,82.08
2018-12-27T02:27:23.159Z,81.80
2018-12-27T02:33:40.215Z,81.59
2018-12-27T02:36:23.753Z,81.67
2018-12-27T02:39:14.402Z,81.74
2018-12-27T02:41:57.490Z,82.01
2018-12-27T02:44:48.215Z,83.07
2018-12-27T02:47:31.364Z,82.48
2018-12-27T02:50:21.990Z,83.04
2018-12-27T02:53:05.271Z,82.69
2018-12-27T02:55:55.987Z,81.89
2018-12-27T02:58:39.441Z,81.80
2018-12-27T03:01:30.121Z,81.43
2018-12-27T03:04:13.601Z,81.67
2018-12-27T03:07:23.333Z,81.87
2018-12-27T03:10:12.438Z,82.04
2018-12-27T03:13:03.082Z,82.45
2018-12-27T03:15:46.622Z,82.41
2018-12-27T03:18:37.368Z,81.91
2018-12-27T03:21:20.491Z,82.24
2018-12-27T03:24:21.194Z,82.17
2018-12-27T03:27:11.810Z,81.94
2018-12-27T03:29:55.158Z,81.67
2018-12-27T03:32:45.888Z,81.79
2018-12-27T03:35:29.429Z,81.94
2018-12-27T03:38:20.062Z,82.01
2018-12-27T03:41:03.569Z,81.74
2018-12-27T03:47:17.036Z,81.03
2018-12-27T03:50:00.526Z,81.13
2018-12-27T03:52:42.146Z,81.21
2018-12-27T03:55:32.855Z,81.21
2018-12-27T03:58:16.160Z,81.36
2018-12-27T04:04:20.087Z,82.07
2018-12-27T04:07:03.466Z,83.54
2018-12-27T04:09:46.654Z,81.99
2018-12-27T04:12:56.340Z,82.46
2018-12-27T04:15:39.869Z,82.25
2018-12-27T04:21:55.309Z,82.20
2018-12-27T04:24:38.676Z,82.72
2018-12-27T04:27:22.294Z,81.71
2018-12-27T04:33:35.538Z,82.43
2018-12-27T04:36:18.558Z,81.97
2018-12-27T04:39:02.148Z,81.52
2018-12-27T04:45:14.357Z,81.72
2018-12-27T04:47:57.618Z,81.14
2018-12-27T04:50:41.141Z,81.36
2018-12-27T04:59:55.626Z,81.54
2018-12-27T05:02:38.677Z,81.50
2018-12-27T05:05:21.500Z,81.39
2018-12-27T05:08:04.831Z,81.07
2018-12-27T05:10:48.353Z,80.70
2018-12-27T05:20:03.021Z,80.34
2018-12-27T05:22:45.806Z,81.03
2018-12-27T05:29:03.207Z,80.76
2018-12-27T05:31:46.066Z,81.70
2018-12-27T05:34:28.874Z,81.04
2018-12-27T05:40:39.506Z,80.43
2018-12-27T05:43:22.751Z,79.96
2018-12-27T05:46:06.155Z,80.34
2018-12-27T05:48:56.673Z,80.76
2018-12-27T05:51:39.508Z,80.79
2018-12-27T05:54:29.977Z,81.62
2018-12-27T05:57:12.816Z,81.23
2018-12-27T06:03:25.882Z,81.63
2018-12-27T06:06:09.180Z,81.21
2018-12-27T06:08:52.389Z,82.42
2018-12-27T06:18:04.473Z,81.72
2018-12-27T06:20:47.940Z,81.62
2018-12-27T06:26:39.982Z,81.44
2018-12-27T06:29:23.454Z,82.51
2018-12-27T06:35:42.469Z,83.08
2018-12-27T06:38:25.626Z,82.87
2018-12-27T06:41:09.053Z,81.69
2018-12-27T06:47:19.809Z,81.72
2018-12-27T06:50:03.088Z,81.69
2018-12-27T06:52:45.925Z,81.54
2018-12-27T06:59:03.019Z,81.44
2018-12-27T07:01:46.223Z,81.12
2018-12-27T07:04:29.790Z,82.62
2018-12-27T07:10:40.493Z,81.85
2018-12-27T07:13:25.453Z,82.12
2018-12-27T07:16:08.337Z,82.49
2018-12-27T07:18:58.850Z,83.35
2018-12-27T07:21:42.342Z,82.38
2018-12-27T07:24:32.877Z,85.22
2018-12-27T07:27:16.105Z,80.03
2018-12-27T07:36:41.161Z,78.11
2018-12-27T07:39:31.743Z,79.13
2018-12-27T07:42:14.850Z,79.34
2018-12-27T07:48:31.760Z,79.48
2018-12-27T07:51:15.052Z,78.99
2018-12-27T07:53:58.424Z,78.90
2018-12-27T07:56:48.874Z,77.78
2018-12-27T07:59:32.221Z,78.01
2018-12-27T08:05:37.995Z,78.73
2018-12-27T08:08:21.307Z,78.12
2018-12-27T08:11:04.062Z,78.25
2018-12-27T08:20:16.233Z,79.92
2018-12-27T08:22:59.672Z,80.10
2018-12-27T08:28:51.774Z,80.55
2018-12-27T08:31:34.894Z,80.85
2018-12-27T08:34:17.696Z,79.78
2018-12-27T08:40:30.678Z,80.54
2018-12-27T08:43:13.923Z,81.75
2018-12-27T08:45:57.468Z,81.77
2018-12-27T08:52:07.853Z,82.15
2018-12-27T08:54:51.298Z,82.35
2018-12-27T08:57:34.569Z,82.08
2018-12-27T09:00:25.110Z,82.39
2018-12-27T09:03:08.759Z,82.42
2018-12-27T09:05:52.337Z,82.93
2018-12-27T09:09:01.772Z,82.36
2018-12-27T09:11:46.334Z,83.60
2018-12-27T09:14:55.793Z,82.65
2018-12-27T09:17:40.883Z,82.03
2018-12-27T09:20:50.347Z,82.70
2018-12-27T09:23:33.632Z,82.49
2018-12-27T09:26:24.169Z,83.11
2018-12-27T09:29:07.006Z,81.73
2018-12-27T09:32:16.427Z,79.83
2018-12-27T09:35:00.082Z,81.34
2018-12-27T09:37:43.752Z,82.61
2018-12-27T09:40:34.301Z,81.56
2018-12-27T09:43:17.525Z,81.02
2018-12-27T09:46:08.231Z,82.25
2018-12-27T09:48:49.781Z,83.84
2018-12-27T09:58:02.542Z,84.08
2018-12-27T10:00:45.321Z,83.05
2018-12-27T10:06:48.441Z,82.80
2018-12-27T10:09:31.188Z,82.94
2018-12-27T10:12:14.734Z,82.80
2018-12-27T10:15:05.806Z,82.67
2018-12-27T10:17:48.564Z,82.07
2018-12-27T10:20:39.007Z,81.71
2018-12-27T10:23:22.182Z,81.62
2018-12-27T10:26:12.821Z,82.08
2018-12-27T10:28:54.340Z,82.30
2018-12-27T10:31:44.886Z,81.63
2018-12-27T10:34:28.259Z,80.34
2018-12-27T10:37:19.074Z,80.49
2018-12-27T10:40:02.379Z,80.08
2018-12-27T10:42:52.972Z,80.65
2018-12-27T10:45:36.122Z,80.78
2018-12-27T10:48:26.575Z,81.04
2018-12-27T10:51:10.157Z,81.16
2018-12-27T10:54:00.682Z,82.12
2018-12-27T10:56:43.915Z,82.12
2018-12-27T10:59:34.450Z,80.96
2018-12-27T11:02:17.554Z,82.08
2018-12-27T11:05:08.103Z,82.52
2018-12-27T11:07:51.602Z,83.13
2018-12-27T11:10:43.130Z,82.35
2018-12-27T11:13:25.949Z,82.45
2018-12-27T11:16:16.556Z,82.25
2018-12-27T11:18:59.815Z,82.44
2018-12-27T11:25:17.170Z,81.92
2018-12-27T11:28:00.508Z,81.43
2018-12-27T11:30:44.029Z,81.66
2018-12-27T11:33:34.575Z,81.87
2018-12-27T11:36:17.763Z,80.77
2018-12-27T11:39:08.306Z,80.44
2018-12-27T11:41:51.069Z,81.10
2018-12-27T11:44:41.589Z,81.64
2018-12-27T11:47:25.077Z,81.12
2018-12-27T11:50:15.630Z,80.14
2018-12-27T11:52:58.609Z,81.62
2018-12-27T11:55:49.110Z,81.81
2018-12-27T11:58:31.894Z,80.38
2018-12-27T12:01:22.395Z,80.75
2018-12-27T12:04:06.090Z,81.84
2018-12-27T12:06:56.634Z,82.06
2018-12-27T12:09:47.201Z,80.76
2018-12-27T12:12:29.945Z,81.86
2018-12-27T12:15:12.726Z,81.59
2018-12-27T12:18:03.237Z,80.72
2018-12-27T12:20:44.760Z,80.69
2018-12-27T12:23:35.287Z,80.48
2018-12-27T12:26:16.783Z,80.19
2018-12-27T12:29:07.334Z,79.16
2018-12-27T12:31:50.936Z,80.69
2018-12-27T12:34:41.510Z,81.83
2018-12-27T12:37:24.276Z,81.45
2018-12-27T12:40:14.823Z,81.08
2018-12-27T12:42:57.658Z,81.66
2018-12-27T12:45:48.152Z,81.78
2018-12-27T12:48:31.592Z,80.74
2018-12-27T12:54:25.138Z,80.50
2018-12-27T12:57:15.685Z,79.74
2018-12-27T12:59:58.508Z,79.40
2018-12-27T13:02:49.124Z,79.72
2018-12-27T13:05:32.363Z,80.03
2018-12-27T13:08:15.997Z,79.43
2018-12-27T13:11:06.587Z,79.62
2018-12-27T13:13:49.716Z,79.96
2018-12-27T13:16:33.269Z,80.91
2018-12-27T13:19:23.852Z,80.92
2018-12-27T13:22:09.077Z,80.06
2018-12-27T13:24:59.594Z,80.01
2018-12-27T13:27:43.130Z,80.57
2018-12-27T13:30:33.674Z,79.96
2018-12-27T13:33:17.090Z,81.72
2018-12-27T13:39:09.767Z,81.52
2018-12-27T13:42:00.309Z,80.98
2018-12-27T13:44:43.701Z,80.84
2018-12-27T13:47:34.207Z,81.73
2018-12-27T13:50:17.539Z,81.45
2018-12-27T13:53:08.034Z,81.95
2018-12-27T13:55:51.351Z,81.50
2018-12-27T13:58:41.876Z,81.07
2018-12-27T14:01:25.198Z,81.08
2018-12-27T14:04:15.725Z,82.02
2018-12-27T14:06:59.198Z,81.96
2018-12-27T14:09:41.908Z,81.06
2018-12-27T14:12:32.491Z,81.82
2018-12-27T14:15:15.614Z,82.05
2018-12-27T14:17:58.388Z,82.51
2018-12-27T14:20:48.926Z,82.15
2018-12-27T14:23:32.346Z,81.84
2018-12-27T14:26:22.852Z,80.71
2018-12-27T14:29:06.427Z,81.07
2018-12-27T14:31:56.971Z,82.04
2018-12-27T14:34:40.167Z,82.33
2018-12-27T14:40:53.510Z,82.76
2018-12-27T14:43:36.980Z,82.82
2018-12-27T14:46:28.266Z,83.90
2018-12-27T14:49:11.851Z,84.23
2018-12-27T14:52:02.359Z,83.80
2018-12-27T14:54:45.306Z,84.38
2018-12-27T15:00:44.168Z,83.09
2018-12-27T15:03:34.789Z,84.10
2018-12-27T15:06:18.272Z,84.34
2018-12-27T15:09:09.181Z,84.95
2018-12-27T15:11:52.849Z,84.86
2018-12-27T15:18:03.677Z,84.60
2018-12-27T15:20:52.411Z,84.08
2018-12-27T15:26:51.190Z,84.41
2018-12-27T15:29:41.728Z,84.11
2018-12-27T15:32:24.409Z,84.84
2018-12-27T15:35:14.995Z,84.13
2018-12-27T15:37:58.461Z,84.36
2018-12-27T15:40:49.068Z,84.43
2018-12-27T15:43:32.480Z,84.62
2018-12-27T15:46:23.039Z,84.59
2018-12-27T15:49:06.516Z,85.04
2018-12-27T15:51:59.992Z,84.92
2018-12-27T15:54:43.167Z,85.31
2018-12-27T15:57:33.714Z,85.04
2018-12-27T16:00:17.322Z,85.26
2018-12-27T16:03:07.900Z,85.21
2018-12-27T16:05:51.420Z,85.25
2018-12-27T16:08:41.988Z,85.33
2018-12-27T16:11:25.230Z,86.03
2018-12-27T16:14:15.813Z,85.62
2018-12-27T16:16:58.924Z,86.33
2018-12-27T16:34:59.764Z,85.70
2018-12-27T16:37:43.333Z,85.46
2018-12-27T16:40:33.891Z,85.68
2018-12-27T16:43:16.733Z,85.99
2018-12-27T16:46:07.256Z,86.08
2018-12-27T16:49:09.306Z,85.98
2018-12-27T17:01:04.692Z,85.32
2018-12-27T17:03:47.463Z,85.40
2018-12-27T17:10:00.559Z,85.30
2018-12-27T17:12:42.264Z,85.40
2018-12-27T17:15:32.830Z,85.44
2018-12-27T17:18:15.735Z,86.19
2018-12-27T17:21:06.311Z,85.59
2018-12-27T17:23:49.585Z,85.72
2018-12-27T17:26:40.165Z,85.73
2018-12-27T17:29:23.202Z,85.68
2018-12-27T17:35:15.846Z,85.80
2018-12-27T17:37:59.011Z,86.02
2018-12-27T17:43:51.894Z,85.60
2018-12-27T17:46:35.851Z,85.59
2018-12-27T17:52:53.426Z,85.60
2018-12-27T17:55:36.270Z,86.01
2018-12-27T18:01:28.771Z,85.95
2018-12-27T18:04:11.917Z,85.68
2018-12-27T18:10:04.412Z,86.15
2018-12-27T18:12:47.147Z,85.52
2018-12-27T18:19:06.262Z,85.62
2018-12-27T18:21:49.674Z,85.53
2018-12-27T18:24:32.617Z,85.83
2018-12-27T18:30:45.714Z,85.21
2018-12-27T18:33:30.424Z,85.72
2018-12-27T18:36:13.352Z,85.66
2018-12-27T18:42:04.728Z,85.35
2018-12-27T18:44:47.878Z,85.27
2018-12-27T18:47:38.357Z,85.27
2018-12-27T18:50:21.431Z,84.99
2018-12-27T18:53:11.991Z,84.94
2018-12-27T18:55:55.509Z,85.11
2018-12-27T18:58:46.083Z,84.71
2018-12-27T19:01:29.015Z,85.18
2018-12-27T19:04:19.581Z,84.69
2018-12-27T19:07:02.954Z,85.31
2018-12-27T19:09:53.607Z,85.54
2018-12-27T19:12:55.569Z,85.32
2018-12-27T19:16:05.236Z,85.09
2018-12-27T19:18:50.208Z,85.57
2018-12-27T19:22:01.999Z,85.77
2018-12-27T19:24:45.391Z,85.38
2018-12-27T19:27:36.029Z,85.37
2018-12-27T19:30:19.360Z,85.60
2018-12-27T19:33:09.953Z,85.39
2018-12-27T19:35:59.125Z,85.26
2018-12-27T19:38:49.670Z,84.77
2018-12-27T19:41:33.016Z,84.84
2018-12-27T19:44:24.568Z,84.71
2018-12-27T19:47:07.426Z,85.17
2018-12-27T19:49:57.985Z,85.11
2018-12-27T19:52:40.932Z,84.89
2018-12-27T19:58:33.007Z,84.74
2018-12-27T20:01:16.481Z,84.39
2018-12-27T20:04:06.954Z,84.94
2018-12-27T20:06:49.906Z,85.32
2018-12-27T20:09:32.836Z,85.37
2018-12-27T20:12:16.014Z,85.04
2018-12-27T20:15:25.655Z,84.48
2018-12-27T20:18:08.397Z,84.63
2018-12-27T20:20:58.958Z,84.48
2018-12-27T20:23:42.271Z,84.97
2018-12-27T20:26:32.851Z,85.42
2018-12-27T20:29:16.266Z,85.28
2018-12-27T20:32:06.841Z,85.37
2018-12-27T20:34:50.318Z,85.24
2018-12-27T20:37:40.932Z,85.67
2018-12-27T20:40:24.524Z,85.77
2018-12-27T20:43:15.099Z,85.07
2018-12-27T20:45:57.870Z,85.57
2018-12-27T20:48:48.477Z,85.43
2018-12-27T20:51:31.201Z,86.34
2018-12-27T20:57:43.865Z,84.66
2018-12-27T21:00:29.656Z,84.69
2018-12-27T21:06:46.450Z,85.17
2018-12-27T21:09:29.364Z,84.55
2018-12-27T21:12:12.157Z,84.60
2018-12-27T21:14:53.742Z,84.72
2018-12-27T21:18:03.175Z,85.22
2018-12-27T21:20:46.147Z,85.29
2018-12-27T21:23:55.588Z,84.43
2018-12-27T21:26:38.544Z,84.75
2018-12-27T21:29:48.055Z,84.85
2018-12-27T21:32:31.236Z,85.13
2018-12-27T21:35:40.672Z,84.95
2018-12-27T21:38:23.576Z,85.26
2018-12-27T21:47:17.736Z,85.00
2018-12-27T21:50:02.617Z,85.29
2018-12-27T21:58:56.979Z,85.53
2018-12-27T22:01:40.514Z,85.01
2018-12-27T22:04:31.114Z,84.97
2018-12-27T22:07:14.321Z,84.64
2018-12-27T22:13:19.373Z,84.78
2018-12-27T22:16:00.908Z,84.66
2018-12-27T22:18:44.113Z,84.72
2018-12-27T22:21:34.650Z,85.06
2018-12-27T22:24:17.973Z,85.31
2018-12-27T22:27:08.504Z,85.65
2018-12-27T22:29:51.965Z,86.21
2018-12-27T22:32:42.492Z,85.26
2018-12-27T22:35:26.047Z,85.43
2018-12-27T22:38:16.602Z,85.32
2018-12-27T22:40:59.918Z,85.87
2018-12-27T22:50:12.567Z,85.35
2018-12-27T22:52:55.994Z,85.70
2018-12-27T22:56:05.673Z,86.20
2018-12-27T22:58:49.067Z,86.07
2018-12-27T23:01:39.633Z,86.47
2018-12-27T23:04:21.217Z,86.16
2018-12-27T23:07:11.657Z,85.99
2018-12-27T23:09:55.067Z,85.99
2018-12-27T23:15:58.686Z,86.11
2018-12-27T23:18:41.637Z,86.08
2018-12-27T23:21:23.175Z,86.37
2018-12-27T23:24:13.716Z,86.32
2018-12-27T23:26:57.113Z,86.23
2018-12-27T23:29:47.713Z,86.58
2018-12-27T23:32:30.526Z,85.85
2018-12-27T23:35:21.062Z,86.10
2018-12-27T23:38:04.401Z,86.22
2018-12-27T23:40:54.915Z,85.87
2018-12-27T23:43:38.323Z,86.11
2018-12-27T23:46:28.904Z,85.86
2018-12-27T23:49:12.417Z,86.00
2018-12-27T23:52:03.006Z,86.08
2018-12-27T23:54:46.420Z,86.00
